sensor_id;sensor_type;location;lat;lon;timestamp;P1;durP1;ratioP1;P2;durP2;ratioP2
27863;SDS011;15980;51.092;13.916;2022-07-22T00:04:21;6.97;;;5.78;;
27863;SDS011;15980;51.092;13.916;2022-07-22T00:09:24;6.72;;;5.30;;
27863;SDS011;15980;51.092;13.916;2022-07-22T00:14:29;10.02;;;7.70;;
27863;SDS011;15980;51.092;13.916;2022-07-22T00:19:32;7.97;;;6.43;;
27863;SDS011;15980;51.092;13.916;2022-07-22T00:24:36;7.60;;;6.13;;
27863;SDS011;15980;51.092;13.916;2022-07-22T00:29:40;8.35;;;5.53;;
27863;SDS011;15980;51.092;13.916;2022-07-22T00:34:44;7.38;;;5.70;;
27863;SDS011;15980;51.092;13.916;2022-07-22T00:39:47;9.57;;;7.47;;
27863;SDS011;15980;51.092;13.916;2022-07-22T00:44:51;8.30;;;6.57;;
27863;SDS011;15980;51.092;13.916;2022-07-22T00:49:54;9.25;;;6.90;;
27863;SDS011;15980;51.092;13.916;2022-07-22T00:54:58;9.32;;;7.32;;
27863;SDS011;15980;51.092;13.916;2022-07-22T01:00:05;11.55;;;7.00;;
27863;SDS011;15980;51.092;13.916;2022-07-22T01:05:11;10.18;;;7.85;;
27863;SDS011;15980;51.092;13.916;2022-07-22T01:10:14;10.50;;;7.50;;
27863;SDS011;15980;51.092;13.916;2022-07-22T01:15:18;8.32;;;6.53;;
27863;SDS011;15980;51.092;13.916;2022-07-22T01:20:23;8.10;;;6.28;;
27863;SDS011;15980;51.092;13.916;2022-07-22T01:25:27;8.85;;;6.25;;
27863;SDS011;15980;51.092;13.916;2022-07-22T01:30:30;7.00;;;5.70;;
27863;SDS011;15980;51.092;13.916;2022-07-22T01:35:34;9.57;;;7.32;;
27863;SDS011;15980;51.092;13.916;2022-07-22T01:40:38;7.93;;;6.60;;
27863;SDS011;15980;51.092;13.916;2022-07-22T01:45:41;9.38;;;7.18;;
27863;SDS011;15980;51.092;13.916;2022-07-22T01:50:46;7.40;;;6.07;;
27863;SDS011;15980;51.092;13.916;2022-07-22T01:55:49;7.63;;;6.13;;
27863;SDS011;15980;51.092;13.916;2022-07-22T02:00:52;8.25;;;5.97;;
27863;SDS011;15980;51.092;13.916;2022-07-22T02:05:56;11.40;;;8.35;;
27863;SDS011;15980;51.092;13.916;2022-07-22T02:11:00;16.40;;;9.57;;
27863;SDS011;15980;51.092;13.916;2022-07-22T02:16:03;12.55;;;8.48;;
27863;SDS011;15980;51.092;13.916;2022-07-22T02:21:08;13.85;;;9.10;;
27863;SDS011;15980;51.092;13.916;2022-07-22T02:26:10;10.93;;;8.20;;
27863;SDS011;15980;51.092;13.916;2022-07-22T02:31:13;11.65;;;7.97;;
27863;SDS011;15980;51.092;13.916;2022-07-22T02:36:18;11.45;;;7.93;;
27863;SDS011;15980;51.092;13.916;2022-07-22T02:41:21;11.00;;;7.10;;
27863;SDS011;15980;51.092;13.916;2022-07-22T02:46:24;7.45;;;6.03;;
27863;SDS011;15980;51.092;13.916;2022-07-22T02:51:31;7.07;;;5.70;;
27863;SDS011;15980;51.092;13.916;2022-07-22T02:56:34;6.25;;;5.00;;
27863;SDS011;15980;51.092;13.916;2022-07-22T03:01:38;7.00;;;5.40;;
27863;SDS011;15980;51.092;13.916;2022-07-22T03:06:43;6.30;;;4.93;;
27863;SDS011;15980;51.092;13.916;2022-07-22T03:11:46;5.53;;;4.28;;
27863;SDS011;15980;51.092;13.916;2022-07-22T03:16:50;7.03;;;5.25;;
27863;SDS011;15980;51.092;13.916;2022-07-22T03:21:54;5.75;;;4.38;;
27863;SDS011;15980;51.092;13.916;2022-07-22T03:26:57;9.20;;;6.18;;
27863;SDS011;15980;51.092;13.916;2022-07-22T03:32:00;9.82;;;7.55;;
27863;SDS011;15980;51.092;13.916;2022-07-22T03:37:04;8.80;;;6.00;;
27863;SDS011;15980;51.092;13.916;2022-07-22T03:42:08;11.30;;;7.07;;
27863;SDS011;15980;51.092;13.916;2022-07-22T03:47:10;9.52;;;7.03;;
27863;SDS011;15980;51.092;13.916;2022-07-22T03:52:15;9.48;;;6.82;;
27863;SDS011;15980;51.092;13.916;2022-07-22T03:57:18;10.70;;;6.65;;
27863;SDS011;15980;51.092;13.916;2022-07-22T04:02:22;7.22;;;5.45;;
27863;SDS011;15980;51.092;13.916;2022-07-22T04:07:26;7.32;;;4.93;;
27863;SDS011;15980;51.092;13.916;2022-07-22T04:12:29;6.28;;;5.10;;
27863;SDS011;15980;51.092;13.916;2022-07-22T04:17:32;8.00;;;5.95;;
27863;SDS011;15980;51.092;13.916;2022-07-22T04:22:37;7.47;;;5.38;;
27863;SDS011;15980;51.092;13.916;2022-07-22T04:27:40;5.95;;;4.50;;
27863;SDS011;15980;51.092;13.916;2022-07-22T04:32:43;5.78;;;3.90;;
27863;SDS011;15980;51.092;13.916;2022-07-22T04:37:48;4.45;;;3.83;;
27863;SDS011;15980;51.092;13.916;2022-07-22T04:42:51;5.53;;;4.20;;
27863;SDS011;15980;51.092;13.916;2022-07-22T04:47:54;9.27;;;5.90;;
27863;SDS011;15980;51.092;13.916;2022-07-22T04:52:58;10.00;;;5.43;;
27863;SDS011;15980;51.092;13.916;2022-07-22T04:58:01;8.48;;;6.07;;
27863;SDS011;15980;51.092;13.916;2022-07-22T05:03:04;10.27;;;6.18;;
27863;SDS011;15980;51.092;13.916;2022-07-22T05:08:08;7.80;;;6.25;;
27863;SDS011;15980;51.092;13.916;2022-07-22T05:13:12;8.80;;;6.20;;
27863;SDS011;15980;51.092;13.916;2022-07-22T05:18:16;9.02;;;6.35;;
27863;SDS011;15980;51.092;13.916;2022-07-22T05:23:20;8.52;;;6.40;;
27863;SDS011;15980;51.092;13.916;2022-07-22T05:28:23;7.35;;;5.53;;
27863;SDS011;15980;51.092;13.916;2022-07-22T05:33:26;9.80;;;6.68;;
27863;SDS011;15980;51.092;13.916;2022-07-22T05:38:32;6.93;;;5.72;;
27863;SDS011;15980;51.092;13.916;2022-07-22T05:43:35;8.10;;;6.30;;
27863;SDS011;15980;51.092;13.916;2022-07-22T05:48:39;8.77;;;6.32;;
27863;SDS011;15980;51.092;13.916;2022-07-22T05:53:43;10.25;;;5.93;;
27863;SDS011;15980;51.092;13.916;2022-07-22T05:58:47;7.72;;;6.00;;
27863;SDS011;15980;51.092;13.916;2022-07-22T06:03:50;7.65;;;5.45;;
27863;SDS011;15980;51.092;13.916;2022-07-22T06:08:54;8.32;;;6.07;;
27863;SDS011;15980;51.092;13.916;2022-07-22T06:13:57;7.20;;;5.57;;
27863;SDS011;15980;51.092;13.916;2022-07-22T06:19:00;6.32;;;5.30;;
27863;SDS011;15980;51.092;13.916;2022-07-22T06:24:05;8.50;;;5.88;;
27863;SDS011;15980;51.092;13.916;2022-07-22T06:29:09;10.95;;;5.78;;
27863;SDS011;15980;51.092;13.916;2022-07-22T06:34:12;12.73;;;6.80;;
27863;SDS011;15980;51.092;13.916;2022-07-22T06:39:16;10.45;;;6.50;;
27863;SDS011;15980;51.092;13.916;2022-07-22T06:44:19;9.32;;;5.57;;
27863;SDS011;15980;51.092;13.916;2022-07-22T06:49:22;9.13;;;5.82;;
27863;SDS011;15980;51.092;13.916;2022-07-22T06:54:27;12.30;;;5.82;;
27863;SDS011;15980;51.092;13.916;2022-07-22T06:59:30;7.90;;;5.15;;
27863;SDS011;15980;51.092;13.916;2022-07-22T07:04:33;7.22;;;5.30;;
27863;SDS011;15980;51.092;13.916;2022-07-22T07:09:37;8.50;;;5.68;;
27863;SDS011;15980;51.092;13.916;2022-07-22T07:14:40;8.07;;;5.68;;
27863;SDS011;15980;51.092;13.916;2022-07-22T07:19:48;10.15;;;6.55;;
27863;SDS011;15980;51.092;13.916;2022-07-22T07:24:53;9.25;;;6.50;;
27863;SDS011;15980;51.092;13.916;2022-07-22T07:29:56;6.85;;;4.95;;
27863;SDS011;15980;51.092;13.916;2022-07-22T07:34:59;8.43;;;5.65;;
27863;SDS011;15980;51.092;13.916;2022-07-22T07:40:04;6.63;;;5.63;;
27863;SDS011;15980;51.092;13.916;2022-07-22T07:45:08;8.48;;;5.57;;
27863;SDS011;15980;51.092;13.916;2022-07-22T07:50:11;7.72;;;5.03;;
27863;SDS011;15980;51.092;13.916;2022-07-22T07:55:16;8.07;;;5.60;;
27863;SDS011;15980;51.092;13.916;2022-07-22T08:00:21;9.73;;;5.43;;
27863;SDS011;15980;51.092;13.916;2022-07-22T08:05:26;8.00;;;5.28;;
27863;SDS011;15980;51.092;13.916;2022-07-22T08:10:31;8.43;;;4.53;;
27863;SDS011;15980;51.092;13.916;2022-07-22T08:15:54;7.00;;;5.30;;
27863;SDS011;15980;51.092;13.916;2022-07-22T08:20:57;10.32;;;5.55;;
27863;SDS011;15980;51.092;13.916;2022-07-22T08:26:01;6.78;;;5.18;;
27863;SDS011;15980;51.092;13.916;2022-07-22T08:31:04;9.88;;;5.50;;
27863;SDS011;15980;51.092;13.916;2022-07-22T08:36:07;5.20;;;4.68;;
27863;SDS011;15980;51.092;13.916;2022-07-22T08:41:12;6.45;;;4.90;;
27863;SDS011;15980;51.092;13.916;2022-07-22T08:46:16;7.45;;;5.00;;
27863;SDS011;15980;51.092;13.916;2022-07-22T08:51:19;9.27;;;5.38;;
27863;SDS011;15980;51.092;13.916;2022-07-22T08:56:24;7.78;;;5.35;;
27863;SDS011;15980;51.092;13.916;2022-07-22T09:01:27;9.43;;;6.50;;
27863;SDS011;15980;51.092;13.916;2022-07-22T09:06:30;8.27;;;5.38;;
27863;SDS011;15980;51.092;13.916;2022-07-22T09:11:36;6.50;;;4.90;;
27863;SDS011;15980;51.092;13.916;2022-07-22T09:16:39;9.82;;;5.82;;
27863;SDS011;15980;51.092;13.916;2022-07-22T09:21:48;6.15;;;5.45;;
27863;SDS011;15980;51.092;13.916;2022-07-22T09:26:55;6.40;;;5.10;;
27863;SDS011;15980;51.092;13.916;2022-07-22T09:31:58;6.43;;;5.57;;
27863;SDS011;15980;51.092;13.916;2022-07-22T09:37:04;6.80;;;5.80;;
27863;SDS011;15980;51.092;13.916;2022-07-22T09:42:08;7.78;;;5.57;;
27863;SDS011;15980;51.092;13.916;2022-07-22T09:47:26;7.70;;;5.95;;
27863;SDS011;15980;51.092;13.916;2022-07-22T09:57:37;10.55;;;6.30;;
27863;SDS011;15980;51.092;13.916;2022-07-22T10:02:43;7.82;;;5.68;;
27863;SDS011;15980;51.092;13.916;2022-07-22T10:07:48;7.40;;;5.20;;
27863;SDS011;15980;51.092;13.916;2022-07-22T10:12:55;7.55;;;6.05;;
27863;SDS011;15980;51.092;13.916;2022-07-22T10:17:59;9.48;;;6.00;;
27863;SDS011;15980;51.092;13.916;2022-07-22T10:23:05;6.18;;;5.20;;
27863;SDS011;15980;51.092;13.916;2022-07-22T10:28:12;11.30;;;6.22;;
27863;SDS011;15980;51.092;13.916;2022-07-22T10:33:24;6.43;;;5.28;;
27863;SDS011;15980;51.092;13.916;2022-07-22T10:38:32;9.95;;;5.72;;
27863;SDS011;15980;51.092;13.916;2022-07-22T10:43:46;8.43;;;5.55;;
27863;SDS011;15980;51.092;13.916;2022-07-22T10:48:49;8.48;;;5.40;;
27863;SDS011;15980;51.092;13.916;2022-07-22T10:53:55;6.88;;;5.40;;
27863;SDS011;15980;51.092;13.916;2022-07-22T10:59:06;6.75;;;5.90;;
27863;SDS011;15980;51.092;13.916;2022-07-22T11:04:13;10.32;;;5.47;;
27863;SDS011;15980;51.092;13.916;2022-07-22T11:09:19;8.45;;;5.63;;
27863;SDS011;15980;51.092;13.916;2022-07-22T11:14:26;8.10;;;4.80;;
27863;SDS011;15980;51.092;13.916;2022-07-22T11:19:32;6.20;;;5.38;;
27863;SDS011;15980;51.092;13.916;2022-07-22T11:24:35;6.05;;;5.43;;
27863;SDS011;15980;51.092;13.916;2022-07-22T11:29:41;6.72;;;5.65;;
27863;SDS011;15980;51.092;13.916;2022-07-22T11:34:47;9.15;;;6.05;;
27863;SDS011;15980;51.092;13.916;2022-07-22T11:39:50;6.85;;;5.30;;
27863;SDS011;15980;51.092;13.916;2022-07-22T11:44:55;7.82;;;5.03;;
27863;SDS011;15980;51.092;13.916;2022-07-22T11:49:58;8.43;;;5.82;;
27863;SDS011;15980;51.092;13.916;2022-07-22T11:55:01;6.55;;;4.78;;
27863;SDS011;15980;51.092;13.916;2022-07-22T12:00:09;5.28;;;4.60;;
27863;SDS011;15980;51.092;13.916;2022-07-22T12:05:14;5.85;;;4.72;;
27863;SDS011;15980;51.092;13.916;2022-07-22T12:10:33;7.57;;;4.82;;
27863;SDS011;15980;51.092;13.916;2022-07-22T12:15:37;6.50;;;5.05;;
27863;SDS011;15980;51.092;13.916;2022-07-22T12:20:48;5.93;;;4.63;;
27863;SDS011;15980;51.092;13.916;2022-07-22T12:25:54;8.75;;;5.15;;
27863;SDS011;15980;51.092;13.916;2022-07-22T12:31:00;6.32;;;5.07;;
27863;SDS011;15980;51.092;13.916;2022-07-22T12:36:04;5.93;;;4.75;;
27863;SDS011;15980;51.092;13.916;2022-07-22T12:41:21;9.50;;;5.80;;
27863;SDS011;15980;51.092;13.916;2022-07-22T12:46:30;6.70;;;5.07;;
27863;SDS011;15980;51.092;13.916;2022-07-22T12:51:33;4.97;;;4.47;;
27863;SDS011;15980;51.092;13.916;2022-07-22T12:56:36;5.82;;;5.22;;
27863;SDS011;15980;51.092;13.916;2022-07-22T13:01:43;6.80;;;4.15;;
27863;SDS011;15980;51.092;13.916;2022-07-22T13:06:46;5.43;;;4.28;;
27863;SDS011;15980;51.092;13.916;2022-07-22T13:11:49;8.48;;;4.32;;
27863;SDS011;15980;51.092;13.916;2022-07-22T13:16:53;5.60;;;3.58;;
27863;SDS011;15980;51.092;13.916;2022-07-22T13:21:56;6.30;;;4.20;;
27863;SDS011;15980;51.092;13.916;2022-07-22T13:26:59;4.40;;;3.90;;
27863;SDS011;15980;51.092;13.916;2022-07-22T13:32:04;4.20;;;3.70;;
27863;SDS011;15980;51.092;13.916;2022-07-22T13:37:19;4.15;;;3.35;;
27863;SDS011;15980;51.092;13.916;2022-07-22T13:42:22;3.10;;;2.80;;
27863;SDS011;15980;51.092;13.916;2022-07-22T13:47:27;4.35;;;3.95;;
27863;SDS011;15980;51.092;13.916;2022-07-22T13:52:30;4.60;;;3.47;;
27863;SDS011;15980;51.092;13.916;2022-07-22T13:57:33;4.47;;;3.85;;
27863;SDS011;15980;51.092;13.916;2022-07-22T14:02:38;4.20;;;2.95;;
27863;SDS011;15980;51.092;13.916;2022-07-22T14:07:41;4.57;;;2.95;;
27863;SDS011;15980;51.092;13.916;2022-07-22T14:12:44;3.55;;;2.92;;
27863;SDS011;15980;51.092;13.916;2022-07-22T14:17:49;4.57;;;3.50;;
27863;SDS011;15980;51.092;13.916;2022-07-22T14:22:52;3.75;;;3.30;;
27863;SDS011;15980;51.092;13.916;2022-07-22T14:27:55;5.38;;;3.22;;
27863;SDS011;15980;51.092;13.916;2022-07-22T14:33:12;6.43;;;2.60;;
27863;SDS011;15980;51.092;13.916;2022-07-22T14:38:15;4.30;;;3.28;;
27863;SDS011;15980;51.092;13.916;2022-07-22T14:43:18;5.10;;;3.10;;
27863;SDS011;15980;51.092;13.916;2022-07-22T14:48:41;6.80;;;3.10;;
27863;SDS011;15980;51.092;13.916;2022-07-22T14:53:44;4.05;;;2.90;;
27863;SDS011;15980;51.092;13.916;2022-07-22T14:58:47;4.53;;;3.65;;
27863;SDS011;15980;51.092;13.916;2022-07-22T15:03:52;3.17;;;2.65;;
27863;SDS011;15980;51.092;13.916;2022-07-22T15:08:55;3.20;;;2.90;;
27863;SDS011;15980;51.092;13.916;2022-07-22T15:13:58;7.38;;;2.60;;
27863;SDS011;15980;51.092;13.916;2022-07-22T15:19:02;2.58;;;2.38;;
27863;SDS011;15980;51.092;13.916;2022-07-22T15:24:06;3.53;;;2.97;;
27863;SDS011;15980;51.092;13.916;2022-07-22T15:29:09;3.80;;;3.05;;
27863;SDS011;15980;51.092;13.916;2022-07-22T15:34:14;5.05;;;2.85;;
27863;SDS011;15980;51.092;13.916;2022-07-22T15:39:17;4.40;;;2.80;;
27863;SDS011;15980;51.092;13.916;2022-07-22T15:44:20;5.22;;;2.70;;
27863;SDS011;15980;51.092;13.916;2022-07-22T15:49:25;3.45;;;2.70;;
27863;SDS011;15980;51.092;13.916;2022-07-22T15:54:27;4.25;;;2.47;;
27863;SDS011;15980;51.092;13.916;2022-07-22T15:59:30;4.70;;;2.83;;
27863;SDS011;15980;51.092;13.916;2022-07-22T16:04:35;4.93;;;3.00;;
27863;SDS011;15980;51.092;13.916;2022-07-22T16:09:38;3.95;;;2.70;;
27863;SDS011;15980;51.092;13.916;2022-07-22T16:14:41;2.90;;;2.40;;
27863;SDS011;15980;51.092;13.916;2022-07-22T16:19:45;5.13;;;2.63;;
27863;SDS011;15980;51.092;13.916;2022-07-22T16:24:48;5.72;;;2.45;;
27863;SDS011;15980;51.092;13.916;2022-07-22T16:29:51;3.33;;;2.53;;
27863;SDS011;15980;51.092;13.916;2022-07-22T16:34:56;3.17;;;2.70;;
27863;SDS011;15980;51.092;13.916;2022-07-22T16:39:58;3.55;;;2.58;;
27863;SDS011;15980;51.092;13.916;2022-07-22T16:45:04;4.45;;;2.85;;
27863;SDS011;15980;51.092;13.916;2022-07-22T16:50:09;3.13;;;2.40;;
27863;SDS011;15980;51.092;13.916;2022-07-22T16:55:12;2.75;;;2.40;;
27863;SDS011;15980;51.092;13.916;2022-07-22T17:00:15;3.63;;;2.80;;
27863;SDS011;15980;51.092;13.916;2022-07-22T17:05:20;3.42;;;2.83;;
27863;SDS011;15980;51.092;13.916;2022-07-22T17:10:23;3.55;;;2.38;;
27863;SDS011;15980;51.092;13.916;2022-07-22T17:15:26;4.03;;;2.50;;
27863;SDS011;15980;51.092;13.916;2022-07-22T17:20:30;2.90;;;2.20;;
27863;SDS011;15980;51.092;13.916;2022-07-22T17:25:33;4.28;;;2.67;;
27863;SDS011;15980;51.092;13.916;2022-07-22T17:30:36;3.15;;;2.40;;
27863;SDS011;15980;51.092;13.916;2022-07-22T17:35:41;3.17;;;2.47;;
27863;SDS011;15980;51.092;13.916;2022-07-22T17:40:44;3.55;;;2.70;;
27863;SDS011;15980;51.092;13.916;2022-07-22T17:45:47;4.35;;;2.20;;
27863;SDS011;15980;51.092;13.916;2022-07-22T17:50:53;2.55;;;2.28;;
27863;SDS011;15980;51.092;13.916;2022-07-22T17:55:56;4.03;;;2.70;;
27863;SDS011;15980;51.092;13.916;2022-07-22T18:01:12;4.22;;;3.50;;
27863;SDS011;15980;51.092;13.916;2022-07-22T18:06:17;4.65;;;3.80;;
27863;SDS011;15980;51.092;13.916;2022-07-22T18:11:20;9.68;;;3.00;;
27863;SDS011;15980;51.092;13.916;2022-07-22T18:16:33;3.05;;;2.17;;
27863;SDS011;15980;51.092;13.916;2022-07-22T18:21:37;3.70;;;3.10;;
27863;SDS011;15980;51.092;13.916;2022-07-22T18:26:40;3.28;;;2.38;;
27863;SDS011;15980;51.092;13.916;2022-07-22T18:31:43;7.78;;;2.60;;
27863;SDS011;15980;51.092;13.916;2022-07-22T18:36:48;2.95;;;2.53;;
27863;SDS011;15980;51.092;13.916;2022-07-22T18:41:51;2.45;;;2.22;;
27863;SDS011;15980;51.092;13.916;2022-07-22T18:46:54;3.63;;;2.38;;
27863;SDS011;15980;51.092;13.916;2022-07-22T18:51:58;2.60;;;1.98;;
27863;SDS011;15980;51.092;13.916;2022-07-22T18:57:02;4.03;;;2.17;;
27863;SDS011;15980;51.092;13.916;2022-07-22T19:02:06;3.15;;;2.22;;
27863;SDS011;15980;51.092;13.916;2022-07-22T19:07:11;3.00;;;2.30;;
27863;SDS011;15980;51.092;13.916;2022-07-22T19:12:14;6.50;;;4.82;;
27863;SDS011;15980;51.092;13.916;2022-07-22T19:17:17;6.32;;;3.92;;
27863;SDS011;15980;51.092;13.916;2022-07-22T19:22:22;4.10;;;3.17;;
27863;SDS011;15980;51.092;13.916;2022-07-22T19:27:25;3.60;;;3.10;;
27863;SDS011;15980;51.092;13.916;2022-07-22T19:32:28;5.55;;;3.10;;
27863;SDS011;15980;51.092;13.916;2022-07-22T19:37:33;3.97;;;2.78;;
27863;SDS011;15980;51.092;13.916;2022-07-22T19:42:36;3.97;;;2.40;;
27863;SDS011;15980;51.092;13.916;2022-07-22T19:47:39;2.72;;;2.30;;
27863;SDS011;15980;51.092;13.916;2022-07-22T19:52:43;3.00;;;2.47;;
27863;SDS011;15980;51.092;13.916;2022-07-22T19:57:46;4.15;;;2.50;;
27863;SDS011;15980;51.092;13.916;2022-07-22T20:02:50;2.88;;;2.38;;
27863;SDS011;15980;51.092;13.916;2022-07-22T20:07:54;2.80;;;2.28;;
27863;SDS011;15980;51.092;13.916;2022-07-22T20:12:58;3.50;;;2.47;;
27863;SDS011;15980;51.092;13.916;2022-07-22T20:18:02;3.53;;;2.67;;
27863;SDS011;15980;51.092;13.916;2022-07-22T20:23:07;3.50;;;2.40;;
27863;SDS011;15980;51.092;13.916;2022-07-22T20:28:10;4.85;;;2.10;;
27863;SDS011;15980;51.092;13.916;2022-07-22T20:33:16;4.10;;;2.72;;
27863;SDS011;15980;51.092;13.916;2022-07-22T20:38:20;4.55;;;2.38;;
27863;SDS011;15980;51.092;13.916;2022-07-22T20:43:23;2.70;;;2.42;;
27863;SDS011;15980;51.092;13.916;2022-07-22T20:48:26;5.10;;;2.90;;
27863;SDS011;15980;51.092;13.916;2022-07-22T20:53:31;2.60;;;2.10;;
27863;SDS011;15980;51.092;13.916;2022-07-22T20:58:34;2.58;;;2.13;;
27863;SDS011;15980;51.092;13.916;2022-07-22T21:03:37;3.05;;;2.42;;
27863;SDS011;15980;51.092;13.916;2022-07-22T21:08:42;3.05;;;2.40;;
27863;SDS011;15980;51.092;13.916;2022-07-22T21:13:44;3.03;;;2.45;;
27863;SDS011;15980;51.092;13.916;2022-07-22T21:18:50;3.35;;;2.70;;
27863;SDS011;15980;51.092;13.916;2022-07-22T21:23:54;2.95;;;2.55;;
27863;SDS011;15980;51.092;13.916;2022-07-22T21:28:57;3.38;;;2.50;;
27863;SDS011;15980;51.092;13.916;2022-07-22T21:34:00;6.82;;;2.53;;
27863;SDS011;15980;51.092;13.916;2022-07-22T21:39:05;3.33;;;2.88;;
27863;SDS011;15980;51.092;13.916;2022-07-22T21:44:08;2.70;;;2.50;;
27863;SDS011;15980;51.092;13.916;2022-07-22T21:49:11;3.00;;;2.40;;
27863;SDS011;15980;51.092;13.916;2022-07-22T21:54:15;2.92;;;2.60;;
27863;SDS011;15980;51.092;13.916;2022-07-22T21:59:18;3.80;;;2.80;;
27863;SDS011;15980;51.092;13.916;2022-07-22T22:04:21;3.00;;;2.35;;
27863;SDS011;15980;51.092;13.916;2022-07-22T22:09:27;4.13;;;2.80;;
27863;SDS011;15980;51.092;13.916;2022-07-22T22:14:30;4.90;;;3.20;;
27863;SDS011;15980;51.092;13.916;2022-07-22T22:19:33;3.65;;;2.97;;
27863;SDS011;15980;51.092;13.916;2022-07-22T22:24:37;4.35;;;2.90;;
27863;SDS011;15980;51.092;13.916;2022-07-22T22:29:40;2.60;;;2.40;;
27863;SDS011;15980;51.092;13.916;2022-07-22T22:34:43;5.00;;;2.97;;
27863;SDS011;15980;51.092;13.916;2022-07-22T22:39:48;2.72;;;2.40;;
27863;SDS011;15980;51.092;13.916;2022-07-22T22:44:51;3.10;;;2.80;;
27863;SDS011;15980;51.092;13.916;2022-07-22T22:49:54;3.58;;;2.53;;
27863;SDS011;15980;51.092;13.916;2022-07-22T22:54:58;3.63;;;3.15;;
27863;SDS011;15980;51.092;13.916;2022-07-22T23:00:01;3.70;;;3.08;;
27863;SDS011;15980;51.092;13.916;2022-07-22T23:05:05;4.43;;;3.40;;
27863;SDS011;15980;51.092;13.916;2022-07-22T23:10:10;6.85;;;3.40;;
27863;SDS011;15980;51.092;13.916;2022-07-22T23:15:13;5.28;;;3.80;;
27863;SDS011;15980;51.092;13.916;2022-07-22T23:20:16;3.83;;;3.03;;
27863;SDS011;15980;51.092;13.916;2022-07-22T23:25:20;4.22;;;3.47;;
27863;SDS011;15980;51.092;13.916;2022-07-22T23:30:23;4.72;;;3.50;;
27863;SDS011;15980;51.092;13.916;2022-07-22T23:35:26;4.15;;;3.33;;
27863;SDS011;15980;51.092;13.916;2022-07-22T23:40:31;4.13;;;3.28;;
27863;SDS011;15980;51.092;13.916;2022-07-22T23:45:34;6.18;;;3.50;;
27863;SDS011;15980;51.092;13.916;2022-07-22T23:50:38;8.15;;;3.60;;
27863;SDS011;15980;51.092;13.916;2022-07-22T23:55:42;5.55;;;3.25;;
